createdAt,value
2018-12-01T00:01:27.123Z,16.03
2018-12-01T00:04:00.047Z,16.67
2018-12-01T00:06:32.276Z,16.97
2018-12-01T00:09:04.699Z,17.00
2018-12-01T00:11:36.490Z,15.83
2018-12-01T00:14:08.167Z,16.80
2018-12-01T00:16:39.811Z,16.47
2018-12-01T00:19:12.776Z,17.73
2018-12-01T00:21:44.707Z,17.33
2018-12-01T00:24:16.747Z,16.53
2018-12-01T00:26:48.564Z,16.40
2018-12-01T00:29:20.442Z,16.40
2018-12-01T00:31:52.381Z,17.67
2018-12-01T00:34:23.886Z,18.73
2018-12-01T00:36:55.739Z,17.00
2018-12-01T00:39:27.541Z,17.90
2018-12-01T00:41:59.191Z,17.07
2018-12-01T00:44:31.343Z,19.13
2018-12-01T00:47:02.810Z,19.07
2018-12-01T00:49:34.644Z,18.80
2018-12-01T00:52:06.575Z,17.47
2018-12-01T00:54:38.011Z,18.07
2018-12-01T00:57:09.411Z,18.37
2018-12-01T00:59:41.210Z,19.43
2018-12-01T01:02:29.843Z,17.07
2018-12-01T01:05:02.031Z,18.13
2018-12-01T01:07:34.850Z,17.83
2018-12-01T01:10:10.542Z,18.13
2018-12-01T01:12:42.310Z,20.00
2018-12-01T01:15:14.233Z,18.40
2018-12-01T01:17:45.568Z,18.00
2018-12-01T01:20:24.419Z,18.50
2018-12-01T01:22:55.834Z,19.13
2018-12-01T01:25:27.385Z,18.77
2018-12-01T01:27:58.895Z,19.47
2018-12-01T01:30:30.612Z,17.60
2018-12-01T01:33:27.784Z,17.77
2018-12-01T01:35:59.081Z,17.87
2018-12-01T01:38:33.644Z,17.33
2018-12-01T01:41:08.307Z,17.20
2018-12-01T01:43:40.822Z,17.10
2018-12-01T01:46:12.123Z,18.10
2018-12-01T01:48:43.648Z,17.13
2018-12-01T01:51:15.184Z,17.53
2018-12-01T01:53:47.276Z,18.57
2018-12-01T01:56:19.187Z,17.83
2018-12-01T01:58:51.123Z,17.57
2018-12-01T02:01:22.965Z,18.13
2018-12-01T02:03:56.057Z,17.07
2018-12-01T02:06:28.254Z,16.13
2018-12-01T02:08:59.569Z,15.67
2018-12-01T02:11:32.756Z,15.83
2018-12-01T02:14:04.576Z,15.70
2018-12-01T02:16:36.318Z,16.83
2018-12-01T02:19:07.687Z,17.40
2018-12-01T02:21:39.790Z,17.83
2018-12-01T02:24:11.241Z,17.53
2018-12-01T02:26:43.011Z,20.13
2018-12-01T02:29:14.749Z,20.73
2018-12-01T02:31:46.420Z,21.47
2018-12-01T02:34:19.625Z,22.97
2018-12-01T02:36:51.414Z,22.40
2018-12-01T02:39:23.107Z,20.37
2018-12-01T02:41:55.294Z,19.37
2018-12-01T02:45:23.620Z,19.37
2018-12-01T02:47:55.255Z,20.23
2018-12-01T02:50:29.959Z,19.90
2018-12-01T02:53:02.624Z,20.50
2018-12-01T02:55:34.377Z,20.07
2018-12-01T02:58:06.459Z,20.40
2018-12-01T03:00:38.770Z,20.47
2018-12-01T03:03:10.116Z,19.40
2018-12-01T03:05:41.593Z,19.27
2018-12-01T03:08:13.323Z,20.53
2018-12-01T03:10:46.552Z,21.37
2018-12-01T03:13:18.442Z,21.10
2018-12-01T03:15:49.863Z,19.70
2018-12-01T03:18:21.201Z,21.00
2018-12-01T03:20:53.438Z,24.87
2018-12-01T03:23:25.231Z,26.03
2018-12-01T03:25:58.835Z,24.07
2018-12-01T03:28:31.312Z,27.30
2018-12-01T03:31:03.749Z,22.50
2018-12-01T03:33:36.537Z,25.33
2018-12-01T03:36:07.898Z,24.13
2018-12-01T03:38:40.453Z,24.90
2018-12-01T03:41:11.836Z,26.10
2018-12-01T03:43:43.957Z,25.33
2018-12-01T03:46:16.123Z,26.03
2018-12-01T03:48:47.905Z,25.33
2018-12-01T03:51:19.316Z,27.03
2018-12-01T03:53:51.616Z,26.20
2018-12-01T03:56:25.189Z,25.60
2018-12-01T03:58:56.960Z,26.40
2018-12-01T04:01:28.827Z,21.60
2018-12-01T04:04:00.394Z,24.53
2018-12-01T04:06:31.802Z,24.50
2018-12-01T04:09:22.192Z,26.47
2018-12-01T04:11:54.292Z,21.33
2018-12-01T04:14:39.449Z,26.73
2018-12-01T04:17:11.803Z,28.23
2018-12-01T04:19:43.560Z,26.83
2018-12-01T04:22:14.958Z,27.77
2018-12-01T04:24:46.597Z,29.53
2018-12-01T04:27:19.399Z,29.33
2018-12-01T04:29:51.360Z,28.93
2018-12-01T04:32:24.379Z,28.93
2018-12-01T04:34:57.793Z,29.03
2018-12-01T04:37:29.915Z,29.00
2018-12-01T04:40:01.307Z,30.97
2018-12-01T04:42:34.613Z,29.87
2018-12-01T04:45:07.516Z,28.43
2018-12-01T04:47:40.250Z,29.03
2018-12-01T04:50:12.861Z,27.37
2018-12-01T04:52:44.726Z,29.10
2018-12-01T04:55:17.231Z,29.20
2018-12-01T04:57:48.609Z,30.20
2018-12-01T05:00:23.267Z,29.43
2018-12-01T05:02:57.236Z,27.93
2018-12-01T05:05:28.599Z,29.40
2018-12-01T05:08:00.616Z,29.17
2018-12-01T05:10:32.765Z,28.93
2018-12-01T05:13:04.062Z,29.60
2018-12-01T05:15:35.477Z,29.90
2018-12-01T05:18:07.299Z,30.87
2018-12-01T05:20:38.732Z,28.93
2018-12-01T05:23:10.843Z,30.27
2018-12-01T05:25:43.423Z,28.00
2018-12-01T05:28:14.730Z,28.70
2018-12-01T05:30:46.088Z,29.03
2018-12-01T05:33:17.971Z,27.57
2018-12-01T05:35:49.829Z,29.13
2018-12-01T05:38:21.444Z,30.30
2018-12-01T05:40:53.499Z,31.17
2018-12-01T05:43:25.379Z,30.83
2018-12-01T05:45:56.716Z,30.50
2018-12-01T05:48:28.738Z,31.03
2018-12-01T05:51:04.137Z,31.47
2018-12-01T05:53:35.501Z,30.87
2018-12-01T05:56:07.664Z,31.13
2018-12-01T05:58:39.817Z,30.87
2018-12-01T06:01:11.316Z,30.30
2018-12-01T06:03:43.498Z,29.80
2018-12-01T06:06:15.175Z,28.57
2018-12-01T06:08:47.048Z,29.00
2018-12-01T06:11:19.346Z,29.47
2018-12-01T06:13:51.191Z,27.43
2018-12-01T06:16:23.712Z,27.93
2018-12-01T06:18:55.280Z,28.57
2018-12-01T06:21:27.382Z,27.80
2018-12-01T06:24:01.719Z,28.47
2018-12-01T06:26:33.352Z,26.97
2018-12-01T06:29:05.980Z,28.33
2018-12-01T06:31:37.363Z,27.53
2018-12-01T06:34:08.570Z,27.30
2018-12-01T06:36:39.870Z,27.27
2018-12-01T06:39:13.090Z,27.00
2018-12-01T06:41:45.134Z,26.30
2018-12-01T06:44:17.020Z,26.13
2018-12-01T06:46:48.409Z,26.00
2018-12-01T06:49:19.820Z,27.57
2018-12-01T06:51:52.194Z,27.67
2018-12-01T06:54:25.000Z,25.80
2018-12-01T06:56:57.922Z,27.27
2018-12-01T06:59:29.295Z,24.97
2018-12-01T07:02:01.099Z,25.73
2018-12-01T07:04:34.087Z,25.60
2018-12-01T07:07:06.418Z,27.97
2018-12-01T07:09:37.824Z,25.50
2018-12-01T07:12:15.082Z,25.93
2018-12-01T07:14:47.570Z,26.57
2018-12-01T07:17:20.181Z,27.13
2018-12-01T07:19:51.785Z,28.97
2018-12-01T07:22:25.476Z,28.90
2018-12-01T07:24:57.166Z,29.07
2018-12-01T07:27:29.078Z,29.77
2018-12-01T07:30:00.483Z,30.43
2018-12-01T07:32:32.799Z,31.10
2018-12-01T07:35:05.280Z,31.50
2018-12-01T07:37:37.542Z,28.73
2018-12-01T07:40:13.799Z,29.57
2018-12-01T07:42:45.074Z,29.30
2018-12-01T07:45:17.412Z,31.40
2018-12-01T07:47:49.200Z,30.53
2018-12-01T07:50:24.296Z,29.63
2018-12-01T07:52:57.527Z,30.83
2018-12-01T07:55:29.446Z,31.23
2018-12-01T07:58:00.845Z,29.70
2018-12-01T08:00:33.013Z,29.67
2018-12-01T08:03:06.663Z,31.03
2018-12-01T08:05:38.663Z,31.17
2018-12-01T08:08:10.796Z,30.13
2018-12-01T08:10:43.747Z,30.83
2018-12-01T08:13:15.956Z,30.00
2018-12-01T08:15:47.379Z,29.60
2018-12-01T08:18:19.095Z,29.07
2018-12-01T08:20:52.570Z,30.53
2018-12-01T08:23:24.546Z,28.17
2018-12-01T08:25:56.076Z,27.50
2018-12-01T08:28:28.137Z,28.17
2018-12-01T08:31:01.083Z,29.50
2018-12-01T08:33:34.170Z,27.00
2018-12-01T08:36:07.521Z,29.17
2018-12-01T08:38:41.229Z,28.23
2018-12-01T08:41:31.699Z,26.60
2018-12-01T08:44:04.012Z,27.27
2018-12-01T08:46:35.585Z,28.57
2018-12-01T08:49:07.462Z,26.40
2018-12-01T08:51:41.554Z,27.07
2018-12-01T08:54:13.423Z,26.50
2018-12-01T08:56:45.669Z,25.43
2018-12-01T08:59:17.698Z,27.97
2018-12-01T09:01:49.733Z,26.43
2018-12-01T09:04:22.559Z,28.07
2018-12-01T09:06:54.876Z,28.50
2018-12-01T09:09:28.037Z,26.43
2018-12-01T09:11:59.555Z,26.83
2018-12-01T09:14:31.296Z,27.87
2018-12-01T09:17:03.314Z,28.37
2018-12-01T09:22:27.541Z,28.13
2018-12-01T09:25:04.608Z,28.73
2018-12-01T09:27:46.624Z,28.63
2018-12-01T09:30:40.860Z,27.50
2018-12-01T09:33:13.267Z,28.00
2018-12-01T09:35:44.721Z,26.93
2018-12-01T09:38:16.111Z,26.97
2018-12-01T09:40:48.718Z,26.77
2018-12-01T09:43:20.198Z,24.57
2018-12-01T09:45:51.606Z,25.90
2018-12-01T09:48:23.998Z,26.00
2018-12-01T09:50:56.069Z,24.67
2018-12-01T09:53:28.376Z,24.50
2018-12-01T09:56:00.579Z,25.43
2018-12-01T09:58:32.648Z,22.93
2018-12-01T10:01:04.073Z,22.63
2018-12-01T10:03:35.925Z,22.27
2018-12-01T10:06:07.369Z,22.93
2018-12-01T10:08:39.150Z,23.30
2018-12-01T10:11:12.013Z,21.63
2018-12-01T10:13:48.031Z,23.57
2018-12-01T10:16:19.667Z,22.40
2018-12-01T10:18:56.380Z,22.70
2018-12-01T10:21:23.584Z,21.50
2018-12-01T10:23:55.347Z,21.23
2018-12-01T10:26:28.049Z,20.93
2018-12-01T10:29:00.293Z,19.80
2018-12-01T10:31:32.129Z,19.90
2018-12-01T10:34:03.764Z,20.13
2018-12-01T10:36:35.462Z,19.60
2018-12-01T10:39:10.133Z,19.00
2018-12-01T10:44:25.515Z,19.33
2018-12-01T10:46:57.248Z,18.87
2018-12-01T10:49:28.598Z,19.60
2018-12-01T10:52:00.872Z,19.07
2018-12-01T10:54:33.436Z,18.30
2018-12-01T10:57:05.053Z,19.03
2018-12-01T10:59:36.797Z,19.00
2018-12-01T11:02:42.766Z,17.87
2018-12-01T11:05:14.436Z,17.57
2018-12-01T11:07:46.141Z,17.73
2018-12-01T11:10:18.279Z,17.10
2018-12-01T11:12:50.409Z,17.50
2018-12-01T11:15:22.443Z,15.57
2018-12-01T11:17:53.757Z,16.20
2018-12-01T11:20:25.491Z,15.77
2018-12-01T11:22:58.235Z,15.77
2018-12-01T11:25:30.194Z,14.97
2018-12-01T11:28:02.066Z,14.53
2018-12-01T11:30:33.820Z,14.43
2018-12-01T11:33:05.668Z,15.60
2018-12-01T11:35:37.064Z,14.57
2018-12-01T11:38:09.083Z,14.40
2018-12-01T11:40:41.174Z,14.90
2018-12-01T11:43:14.411Z,15.17
2018-12-01T11:45:46.039Z,15.33
2018-12-01T11:48:18.177Z,15.23
2018-12-01T11:50:49.525Z,15.07
2018-12-01T11:53:21.035Z,15.23
2018-12-01T11:55:53.973Z,14.07
2018-12-01T11:58:25.478Z,13.17
2018-12-01T12:00:56.769Z,13.37
2018-12-01T12:03:28.874Z,13.63
2018-12-01T12:06:00.612Z,12.30
2018-12-01T12:08:32.090Z,12.23
2018-12-01T12:11:03.655Z,12.90
2018-12-01T12:13:35.782Z,11.83
2018-12-01T12:16:07.665Z,11.77
2018-12-01T12:18:39.150Z,12.13
2018-12-01T12:21:11.209Z,12.10
2018-12-01T12:23:44.451Z,11.70
2018-12-01T12:26:16.062Z,11.40
2018-12-01T12:28:48.658Z,10.67
2018-12-01T12:31:24.565Z,10.83
2018-12-01T12:33:57.255Z,10.90
2018-12-01T12:36:31.185Z,10.37
2018-12-01T12:39:03.052Z,9.87
2018-12-01T12:41:35.329Z,10.27
2018-12-01T12:44:08.386Z,9.50
2018-12-01T12:46:40.031Z,9.60
2018-12-01T12:49:11.277Z,9.07
2018-12-01T12:51:43.790Z,9.80
2018-12-01T12:54:33.489Z,9.40
2018-12-01T12:57:05.600Z,8.87
2018-12-01T12:59:37.655Z,9.10
2018-12-01T13:02:09.284Z,9.20
2018-12-01T13:04:40.631Z,9.20
2018-12-01T13:07:11.988Z,8.60
2018-12-01T13:09:43.279Z,9.20
2018-12-01T13:12:15.091Z,9.20
2018-12-01T13:14:46.381Z,8.90
2018-12-01T13:17:18.380Z,8.67
2018-12-01T13:19:50.546Z,9.73
2018-12-01T13:22:22.650Z,9.10
2018-12-01T13:24:54.105Z,9.23
2018-12-01T13:27:25.551Z,8.87
2018-12-01T13:29:58.600Z,9.03
2018-12-01T13:32:31.126Z,9.20
2018-12-01T13:35:02.475Z,8.77
2018-12-01T13:37:34.104Z,9.23
2018-12-01T13:40:08.430Z,9.07
2018-12-01T13:42:39.918Z,8.80
2018-12-01T13:45:18.425Z,8.80
2018-12-01T13:47:51.060Z,7.97
2018-12-01T13:50:23.497Z,8.10
2018-12-01T13:53:02.151Z,7.90
2018-12-01T13:55:34.419Z,7.73
2018-12-01T13:58:06.421Z,8.53
2018-12-01T14:00:37.941Z,7.33
2018-12-01T14:03:10.623Z,7.77
2018-12-01T14:05:43.204Z,7.97
2018-12-01T14:08:14.574Z,7.33
2018-12-01T14:10:52.775Z,7.83
2018-12-01T14:13:24.428Z,7.57
2018-12-01T14:21:38.946Z,6.87
2018-12-01T14:24:10.656Z,6.90
2018-12-01T14:26:42.021Z,7.70
2018-12-01T14:29:13.562Z,6.27
2018-12-01T14:31:46.107Z,6.97
2018-12-01T14:34:18.027Z,5.97
2018-12-01T14:36:49.480Z,6.07
2018-12-01T14:39:21.379Z,6.10
2018-12-01T14:41:53.338Z,5.60
2018-12-01T14:44:24.761Z,5.20
2018-12-01T14:46:56.107Z,5.10
2018-12-01T14:49:30.713Z,5.70
2018-12-01T14:52:05.052Z,5.40
2018-12-01T14:54:37.761Z,5.10
2018-12-01T14:57:09.343Z,5.57
2018-12-01T14:59:40.597Z,5.37
2018-12-01T15:02:12.022Z,5.50
2018-12-01T15:04:44.233Z,5.23
2018-12-01T15:07:16.889Z,5.20
2018-12-01T15:09:48.674Z,5.73
2018-12-01T15:12:20.107Z,6.60
2018-12-01T15:14:52.468Z,6.77
2018-12-01T15:17:24.137Z,5.60
2018-12-01T15:19:55.556Z,6.60
2018-12-01T15:22:38.081Z,5.57
2018-12-01T15:25:22.639Z,5.67
2018-12-01T15:27:54.123Z,5.87
2018-12-01T15:30:29.190Z,6.33
2018-12-01T15:33:20.223Z,6.00
2018-12-01T15:35:51.588Z,6.57
2018-12-01T15:38:23.543Z,7.30
2018-12-01T15:40:55.165Z,7.23
2018-12-01T15:43:28.500Z,6.77
2018-12-01T15:46:00.019Z,7.50
2018-12-01T15:48:31.703Z,8.00
2018-12-01T15:51:03.441Z,6.87
2018-12-01T15:53:35.300Z,7.33
2018-12-01T15:56:06.664Z,7.37
2018-12-01T15:58:38.246Z,6.87
2018-12-01T16:01:10.117Z,6.40
2018-12-01T16:03:41.615Z,6.70
2018-12-01T16:06:12.957Z,7.03
2018-12-01T16:08:44.327Z,6.37
2018-12-01T16:11:15.794Z,7.13
2018-12-01T16:13:47.555Z,6.63
2018-12-01T16:16:21.809Z,6.70
2018-12-01T16:18:54.365Z,6.90
2018-12-01T16:21:25.937Z,7.20
2018-12-01T16:23:57.429Z,7.07
2018-12-01T16:26:29.621Z,7.23
2018-12-01T16:29:01.069Z,6.57
2018-12-01T16:31:33.030Z,6.67
2018-12-01T16:34:04.327Z,7.27
2018-12-01T16:36:35.852Z,7.77
2018-12-01T16:39:10.379Z,6.73
2018-12-01T16:41:41.813Z,7.57
2018-12-01T16:44:14.188Z,6.63
2018-12-01T16:46:46.954Z,7.50
2018-12-01T16:49:18.579Z,6.73
2018-12-01T16:51:49.988Z,7.40
2018-12-01T16:54:21.763Z,7.00
2018-12-01T16:56:53.910Z,7.93
2018-12-01T16:59:26.129Z,7.50
2018-12-01T17:01:57.773Z,7.37
2018-12-01T17:04:30.824Z,7.27
2018-12-01T17:07:02.445Z,8.37
2018-12-01T17:09:34.138Z,7.00
2018-12-01T17:12:06.544Z,7.07
2018-12-01T17:14:38.206Z,7.10
2018-12-01T17:17:09.896Z,6.93
2018-12-01T17:19:42.209Z,6.70
2018-12-01T17:22:13.982Z,6.63
2018-12-01T17:24:45.617Z,6.80
2018-12-01T17:27:17.338Z,6.83
2018-12-01T17:29:49.025Z,6.77
2018-12-01T17:32:20.910Z,6.37
2018-12-01T17:34:52.675Z,6.17
2018-12-01T17:37:25.518Z,6.83
2018-12-01T17:39:59.682Z,6.07
2018-12-01T17:42:30.179Z,6.37
2018-12-01T17:45:01.857Z,6.03
2018-12-01T17:47:34.119Z,6.50
2018-12-01T17:50:08.939Z,5.70
2018-12-01T17:52:40.909Z,5.97
2018-12-01T17:55:13.688Z,5.97
2018-12-01T17:57:46.728Z,6.70
2018-12-01T18:00:26.258Z,5.83
2018-12-01T18:02:58.854Z,17.03
2018-12-01T18:05:37.887Z,5.60
2018-12-01T18:08:14.034Z,5.90
2018-12-01T18:10:46.526Z,6.33
2018-12-01T18:13:19.087Z,5.50
2018-12-01T18:15:50.422Z,5.27
2018-12-01T18:18:22.549Z,5.73
2018-12-01T18:20:53.994Z,6.13
2018-12-01T18:23:25.394Z,5.00
2018-12-01T18:25:57.121Z,4.70
2018-12-01T18:28:33.855Z,4.67
2018-12-01T18:31:08.168Z,5.00
2018-12-01T18:33:44.318Z,5.07
2018-12-01T18:36:16.878Z,4.33
2018-12-01T18:38:50.613Z,4.70
2018-12-01T18:41:23.071Z,4.97
2018-12-01T18:43:55.596Z,4.80
2018-12-01T18:46:27.037Z,5.23
2018-12-01T18:48:58.374Z,4.63
2018-12-01T18:51:31.274Z,5.37
2018-12-01T18:54:02.845Z,4.70
2018-12-01T18:56:34.957Z,4.93
2018-12-01T18:59:06.585Z,5.17
2018-12-01T19:01:37.948Z,5.77
2018-12-01T19:04:09.244Z,5.20
2018-12-01T19:06:40.604Z,5.50
2018-12-01T19:09:12.722Z,5.20
2018-12-01T19:11:44.391Z,5.40
2018-12-01T19:14:15.709Z,5.83
2018-12-01T19:16:47.989Z,5.73
2018-12-01T19:19:19.289Z,5.30
2018-12-01T19:21:50.744Z,5.70
2018-12-01T19:24:22.841Z,5.20
2018-12-01T19:26:54.576Z,5.17
2018-12-01T19:29:25.867Z,6.30
2018-12-01T19:31:57.219Z,5.57
2018-12-01T19:34:28.677Z,5.43
2018-12-01T19:37:00.027Z,5.63
2018-12-01T19:39:32.781Z,5.00
2018-12-01T19:42:05.420Z,5.73
2018-12-01T19:44:37.039Z,5.70
2018-12-01T19:47:08.707Z,6.30
2018-12-01T19:49:40.676Z,5.50
2018-12-01T19:52:12.932Z,5.27
2018-12-01T19:54:44.266Z,5.30
2018-12-01T19:57:15.954Z,5.20
2018-12-01T19:59:47.946Z,5.53
2018-12-01T20:02:20.048Z,4.67
2018-12-01T20:04:52.153Z,5.30
2018-12-01T20:07:23.812Z,5.50
2018-12-01T20:09:55.662Z,5.30
2018-12-01T20:12:27.233Z,4.93
2018-12-01T20:14:58.823Z,5.70
2018-12-01T20:17:30.551Z,5.03
2018-12-01T20:20:02.206Z,5.60
2018-12-01T20:22:33.632Z,5.43
2018-12-01T20:25:05.078Z,5.57
2018-12-01T20:27:36.593Z,5.67
2018-12-01T20:30:20.711Z,5.80
2018-12-01T20:32:52.430Z,5.40
2018-12-01T20:35:28.808Z,5.80
2018-12-01T20:38:06.019Z,5.83
2018-12-01T20:40:38.120Z,5.73
2018-12-01T20:43:11.023Z,5.70
2018-12-01T20:45:43.487Z,5.53
2018-12-01T20:48:14.968Z,5.73
2018-12-01T20:50:46.386Z,5.70
2018-12-01T20:53:18.551Z,5.30
2018-12-01T20:55:58.614Z,5.30
2018-12-01T20:58:33.649Z,5.57
2018-12-01T21:01:04.969Z,5.27
2018-12-01T21:03:36.994Z,5.43
2018-12-01T21:06:11.668Z,5.30
2018-12-01T21:08:46.188Z,6.00
2018-12-01T21:11:19.544Z,5.70
2018-12-01T21:13:50.921Z,5.03
2018-12-01T21:16:23.046Z,5.63
2018-12-01T21:18:54.492Z,5.53
2018-12-01T21:21:26.260Z,5.73
2018-12-01T21:23:57.938Z,5.87
2018-12-01T21:26:29.609Z,5.83
2018-12-01T21:29:01.214Z,6.03
2018-12-01T21:31:33.263Z,5.50
2018-12-01T21:34:04.962Z,6.10
2018-12-01T21:36:36.441Z,6.30
2018-12-01T21:39:09.667Z,5.20
2018-12-01T21:41:41.306Z,5.73
2018-12-01T21:44:13.153Z,6.00
2018-12-01T21:46:44.541Z,5.70
2018-12-01T21:49:16.526Z,5.67
2018-12-01T21:51:48.474Z,5.90
2018-12-01T21:54:23.283Z,5.57
2018-12-01T21:56:55.875Z,6.20
2018-12-01T21:59:27.558Z,5.67
2018-12-01T22:01:58.882Z,5.73
2018-12-01T22:04:30.870Z,6.47
2018-12-01T22:07:02.275Z,6.00
2018-12-01T22:09:35.494Z,6.57
2018-12-01T22:12:07.036Z,5.80
2018-12-01T22:14:38.952Z,5.77
2018-12-01T22:17:10.356Z,6.27
2018-12-01T22:19:42.703Z,5.97
2018-12-01T22:22:15.466Z,5.77
2018-12-01T22:24:47.355Z,6.77
2018-12-01T22:27:19.056Z,5.93
2018-12-01T22:29:50.749Z,6.70
2018-12-01T22:32:23.072Z,7.10
2018-12-01T22:34:54.395Z,6.50
2018-12-01T22:37:25.753Z,6.60
2018-12-01T22:39:57.036Z,6.43
2018-12-01T22:42:28.819Z,6.50
2018-12-01T22:45:00.927Z,6.23
2018-12-01T22:47:32.315Z,7.03
2018-12-01T22:50:04.093Z,6.40
2018-12-01T22:52:35.413Z,6.73
2018-12-01T22:55:08.885Z,6.87
2018-12-01T22:57:40.657Z,7.27
2018-12-01T23:00:40.892Z,7.70
2018-12-01T23:03:13.347Z,7.23
2018-12-01T23:05:44.836Z,7.00
2018-12-01T23:08:17.559Z,6.93
2018-12-01T23:10:49.552Z,6.40
2018-12-01T23:13:21.131Z,7.30
2018-12-01T23:15:52.603Z,7.10
2018-12-01T23:18:27.558Z,7.20
2018-12-01T23:20:58.819Z,7.80
2018-12-01T23:23:30.579Z,6.90
2018-12-01T23:26:02.210Z,7.33
2018-12-01T23:28:34.147Z,7.63
2018-12-01T23:31:05.918Z,7.60
2018-12-01T23:33:37.225Z,7.40
2018-12-01T23:36:08.568Z,7.43
2018-12-01T23:38:39.887Z,8.13
2018-12-01T23:41:12.338Z,7.70
2018-12-01T23:43:45.341Z,8.10
2018-12-01T23:46:16.725Z,7.57
2018-12-01T23:48:48.560Z,7.70
2018-12-01T23:51:20.575Z,6.90
2018-12-01T23:53:52.478Z,7.57
2018-12-01T23:56:23.802Z,8.20
2018-12-01T23:58:56.219Z,7.20
